Shawnee Mission, Kansas
Current Conditions -  °F | °C
As of 4:54 PM on Wednesday 26 Nov 2014 (Local Time) from KMKC Reporting Station
Overcast Overcast  
Wind Chill: 25°   Ceiling: 2100
Heat Index: 35°   Visibility: 9mi
Dew Point: 26°   Wind: 16mph
Humidity: 70%   Direction: 320°NW
Pressure: 30.17"   Gusts: 20mph
Location:  39.03°N, 94.66°W
Report Text: KMKC 262254Z 32014G17KT 9SM OVC021 02/M03 A3017 RMK AO2 PK WND 31026/2236 SNB2156E21B37E47 SLP220 P0000 T00171033
Loading
Personal Weather Stations






























Interactive Weather Map New forecast layout! Learn more

10-Day Weather Forecast

Advertisements
Track Severe Weather on mobile